createdAt,value
2018-01-05T00:01:52.868Z,100.00
2018-01-05T00:04:20.325Z,100.00
2018-01-05T00:06:48.402Z,100.00
2018-01-05T00:09:15.856Z,100.00
2018-01-05T00:11:43.313Z,100.00
2018-01-05T00:14:11.027Z,100.00
2018-01-05T00:16:38.487Z,100.00
2018-01-05T00:19:05.958Z,100.00
2018-01-05T00:21:33.772Z,100.00
2018-01-05T00:24:01.233Z,100.00
2018-01-05T00:26:28.673Z,100.00
2018-01-05T00:28:56.757Z,100.00
2018-01-05T00:31:24.212Z,100.00
2018-01-05T00:33:51.665Z,100.00
2018-01-05T00:36:19.499Z,100.00
2018-01-05T00:38:46.954Z,100.00
2018-01-05T00:41:14.414Z,100.00
2018-01-05T00:43:42.229Z,100.00
2018-01-05T00:46:09.677Z,100.00
2018-01-05T00:48:37.137Z,100.00
2018-01-05T00:51:04.885Z,100.00
2018-01-05T00:53:32.336Z,100.00
2018-01-05T00:55:59.793Z,100.00
2018-01-05T00:58:27.519Z,100.00
2018-01-05T01:00:54.985Z,100.00
2018-01-05T01:03:22.443Z,100.00
2018-01-05T01:05:50.196Z,100.00
2018-01-05T01:08:17.649Z,100.00
2018-01-05T01:10:45.101Z,100.00
2018-01-05T01:13:12.677Z,100.00
2018-01-05T01:15:40.128Z,100.00
2018-01-05T01:18:07.584Z,100.00
2018-01-05T01:20:35.270Z,100.00
2018-01-05T01:23:02.724Z,100.00
2018-01-05T01:25:30.181Z,100.00
2018-01-05T01:27:57.956Z,100.00
2018-01-05T01:30:25.671Z,100.00
2018-01-05T01:32:53.143Z,100.00
2018-01-05T01:35:20.943Z,100.00
2018-01-05T01:37:48.404Z,100.00
2018-01-05T01:40:15.865Z,100.00
2018-01-05T01:42:43.641Z,100.00
2018-01-05T01:45:11.103Z,100.00
2018-01-05T01:47:38.568Z,100.00
2018-01-05T01:50:06.326Z,100.00
2018-01-05T01:52:33.784Z,100.00
2018-01-05T01:55:01.242Z,100.00
2018-01-05T01:57:29.014Z,100.00
2018-01-05T01:59:56.464Z,100.00
2018-01-05T02:02:23.921Z,100.00
2018-01-05T02:04:51.702Z,100.00
2018-01-05T02:07:19.162Z,100.00
2018-01-05T02:09:46.622Z,100.00
2018-01-05T02:12:14.385Z,100.00
2018-01-05T02:14:41.846Z,100.00
2018-01-05T02:17:09.308Z,100.00
2018-01-05T02:19:37.068Z,100.00
2018-01-05T02:22:04.526Z,100.00
2018-01-05T02:24:32.355Z,100.00
2018-01-05T02:27:00.243Z,100.00
2018-01-05T02:29:27.698Z,100.00
2018-01-05T02:31:56.004Z,100.00
2018-01-05T02:34:23.669Z,100.00
2018-01-05T02:36:51.129Z,100.00
2018-01-05T02:39:18.603Z,100.00
2018-01-05T02:41:46.368Z,100.00
2018-01-05T02:44:13.831Z,100.00
2018-01-05T02:46:41.297Z,100.00
2018-01-05T02:49:09.044Z,100.00
2018-01-05T02:51:36.493Z,100.00
2018-01-05T02:54:03.945Z,100.00
2018-01-05T02:56:31.734Z,100.00
2018-01-05T02:58:59.569Z,100.00
2018-01-05T03:01:27.026Z,100.00
2018-01-05T03:03:55.036Z,100.00
2018-01-05T03:06:22.477Z,100.00
2018-01-05T03:08:49.920Z,100.00
2018-01-05T03:11:17.730Z,100.00
2018-01-05T03:13:45.189Z,100.00
2018-01-05T03:16:12.649Z,100.00
2018-01-05T03:18:40.364Z,100.00
2018-01-05T03:21:07.837Z,100.00
2018-01-05T03:23:35.303Z,100.00
2018-01-05T03:26:03.093Z,100.00
2018-01-05T03:28:30.546Z,100.00
2018-01-05T03:30:58.003Z,100.00
2018-01-05T03:33:28.549Z,100.00
2018-01-05T03:35:55.993Z,100.00
2018-01-05T03:38:23.444Z,100.00
2018-01-05T03:40:51.237Z,100.00
2018-01-05T03:43:18.690Z,100.00
2018-01-05T03:45:46.137Z,100.00
2018-01-05T03:48:13.921Z,100.00
2018-01-05T03:50:41.368Z,100.00
2018-01-05T03:53:10.539Z,100.00
2018-01-05T03:55:38.765Z,100.00
2018-01-05T03:58:06.216Z,100.00
2018-01-05T04:00:33.658Z,100.00
2018-01-05T04:03:01.351Z,100.00
2018-01-05T04:05:28.808Z,100.00
2018-01-05T04:07:56.249Z,100.00
2018-01-05T04:10:24.146Z,100.00
2018-01-05T04:12:51.599Z,100.00
2018-01-05T04:15:19.060Z,100.00
2018-01-05T04:17:46.833Z,100.00
2018-01-05T04:20:14.288Z,100.00
2018-01-05T04:22:41.750Z,100.00
2018-01-05T04:25:09.517Z,100.00
2018-01-05T04:27:36.974Z,100.00
2018-01-05T04:30:04.439Z,100.00
2018-01-05T04:32:32.149Z,100.00
2018-01-05T04:35:00.346Z,100.00
2018-01-05T04:37:27.814Z,100.00
2018-01-05T04:39:55.509Z,100.00
2018-01-05T04:42:22.964Z,100.00
2018-01-05T04:44:50.417Z,100.00
2018-01-05T04:47:18.188Z,100.00
2018-01-05T04:49:45.641Z,100.00
2018-01-05T04:52:13.104Z,100.00
2018-01-05T04:54:41.188Z,100.00
2018-01-05T04:57:08.649Z,100.00
2018-01-05T04:59:36.105Z,100.00
2018-01-05T05:02:03.866Z,100.00
2018-01-05T05:04:31.309Z,100.00
2018-01-05T05:06:58.809Z,100.00
2018-01-05T05:09:26.564Z,100.00
2018-01-05T05:11:54.016Z,100.00
2018-01-05T05:14:21.468Z,100.00
2018-01-05T05:16:49.236Z,100.00
2018-01-05T05:19:16.684Z,100.00
2018-01-05T05:21:44.140Z,100.00
2018-01-05T05:24:11.916Z,100.00
2018-01-05T05:26:39.369Z,100.00
2018-01-05T05:29:06.823Z,100.00
2018-01-05T05:31:34.612Z,100.00
2018-01-05T05:34:02.060Z,100.00
2018-01-05T05:36:30.218Z,100.00
2018-01-05T05:38:58.217Z,100.00
2018-01-05T05:41:25.664Z,100.00
2018-01-05T05:43:53.121Z,100.00
2018-01-05T05:46:20.923Z,100.00
2018-01-05T05:48:48.384Z,100.00
2018-01-05T05:51:15.839Z,100.00
2018-01-05T05:53:43.906Z,100.00
2018-01-05T05:56:11.357Z,100.00
2018-01-05T05:58:38.908Z,100.00
2018-01-05T06:01:07.497Z,100.00
2018-01-05T06:03:34.973Z,100.00
2018-01-05T06:06:02.479Z,100.00
2018-01-05T06:08:30.204Z,100.00
2018-01-05T06:10:57.654Z,100.00
2018-01-05T06:13:25.109Z,100.00
2018-01-05T06:15:53.324Z,100.00
2018-01-05T06:18:20.771Z,100.00
2018-01-05T06:20:48.221Z,100.00
2018-01-05T06:23:15.900Z,100.00
2018-01-05T06:25:43.348Z,100.00
2018-01-05T06:28:10.802Z,100.00
2018-01-05T06:30:38.538Z,100.00
2018-01-05T06:33:06.005Z,100.00
2018-01-05T06:35:33.478Z,100.00
2018-01-05T06:38:01.568Z,100.00
2018-01-05T06:40:29.029Z,100.00
2018-01-05T06:42:56.501Z,100.00
2018-01-05T06:45:24.256Z,100.00
2018-01-05T06:47:51.720Z,100.00
2018-01-05T06:50:19.182Z,100.00
2018-01-05T06:52:47.260Z,100.00
2018-01-05T06:55:14.710Z,100.00
2018-01-05T06:57:42.174Z,100.00
2018-01-05T07:00:09.939Z,100.00
2018-01-05T07:02:37.400Z,100.00
2018-01-05T07:05:04.899Z,100.00
2018-01-05T07:07:32.622Z,100.00
2018-01-05T07:10:00.095Z,100.00
2018-01-05T07:12:27.561Z,100.00
2018-01-05T07:14:55.919Z,100.00
2018-01-05T07:17:23.369Z,100.00
2018-01-05T07:19:50.848Z,100.00
2018-01-05T07:22:18.618Z,100.00
2018-01-05T07:24:46.079Z,100.00
2018-01-05T07:27:13.537Z,100.00
2018-01-05T07:29:41.310Z,100.00
2018-01-05T07:32:08.776Z,100.00
2018-01-05T07:34:36.220Z,100.00
2018-01-05T07:37:03.989Z,100.00
2018-01-05T07:39:32.092Z,100.00
2018-01-05T07:41:59.550Z,100.00
2018-01-05T07:44:27.278Z,100.00
2018-01-05T07:46:54.724Z,100.00
2018-01-05T07:49:22.182Z,100.00
2018-01-05T07:51:49.972Z,100.00
2018-01-05T07:54:17.430Z,100.00
2018-01-05T07:56:44.885Z,100.00
2018-01-05T07:59:12.667Z,100.00
2018-01-05T08:01:40.122Z,100.00
2018-01-05T08:04:07.584Z,100.00
2018-01-05T08:06:35.289Z,100.00
2018-01-05T08:09:02.748Z,100.00
2018-01-05T08:11:30.210Z,100.00
2018-01-05T08:13:58.082Z,100.00
2018-01-05T08:16:25.551Z,100.00
2018-01-05T08:18:52.993Z,100.00
2018-01-05T08:21:20.722Z,100.00
2018-01-05T08:23:48.176Z,100.00
2018-01-05T08:26:15.629Z,100.00
2018-01-05T08:28:43.406Z,100.00
2018-01-05T08:31:10.875Z,100.00
2018-01-05T08:33:38.422Z,100.00
2018-01-05T08:36:06.204Z,100.00
2018-01-05T08:38:33.656Z,100.00
2018-01-05T08:41:01.714Z,100.00
2018-01-05T08:43:29.406Z,100.00
2018-01-05T08:45:56.867Z,100.00
2018-01-05T08:48:24.326Z,100.00
2018-01-05T08:50:52.405Z,100.00
2018-01-05T08:53:19.869Z,100.00
2018-01-05T08:55:47.357Z,100.00
2018-01-05T08:58:15.106Z,100.00
2018-01-05T09:00:42.561Z,100.00
2018-01-05T09:03:10.083Z,100.00
2018-01-05T09:05:37.816Z,100.00
2018-01-05T09:08:05.273Z,100.00
2018-01-05T09:10:33.101Z,100.00
2018-01-05T09:13:01.130Z,100.00
2018-01-05T09:15:28.584Z,100.00
2018-01-05T09:17:56.036Z,100.00
2018-01-05T09:20:25.038Z,100.00
2018-01-05T09:22:52.488Z,100.00
2018-01-05T09:25:19.934Z,100.00
2018-01-05T09:27:47.720Z,100.00
2018-01-05T09:30:15.176Z,100.00
2018-01-05T09:32:42.639Z,100.00
2018-01-05T09:35:10.405Z,100.00
2018-01-05T09:37:37.852Z,100.00
2018-01-05T09:40:05.305Z,100.00
2018-01-05T09:42:34.448Z,100.00
2018-01-05T09:45:01.909Z,100.00
2018-01-05T09:47:29.358Z,100.00
2018-01-05T09:49:57.329Z,100.00
2018-01-05T09:52:24.781Z,100.00
2018-01-05T09:54:52.246Z,100.00
2018-01-05T09:57:20.022Z,100.00
2018-01-05T09:59:47.481Z,100.00
2018-01-05T10:02:14.933Z,100.00
2018-01-05T10:04:42.697Z,100.00
2018-01-05T10:07:10.158Z,98.90
2018-01-05T10:09:37.620Z,97.96
2018-01-05T10:12:05.385Z,96.99
2018-01-05T10:14:32.846Z,94.60
2018-01-05T10:17:00.305Z,92.16
2018-01-05T10:19:28.077Z,93.11
2018-01-05T10:21:55.546Z,89.71
2018-01-05T10:24:23.009Z,89.15
2018-01-05T10:26:50.759Z,85.93
2018-01-05T10:29:18.222Z,86.08
2018-01-05T10:31:45.684Z,86.70
2018-01-05T10:34:13.444Z,84.80
2018-01-05T10:36:40.904Z,84.87
2018-01-05T10:39:08.457Z,84.54
2018-01-05T10:41:36.132Z,84.81
2018-01-05T10:44:04.273Z,86.11
2018-01-05T10:46:31.721Z,88.43
2018-01-05T10:48:59.442Z,87.00
2018-01-05T10:51:26.902Z,87.02
2018-01-05T10:53:54.356Z,88.53
2018-01-05T10:56:22.429Z,85.47
2018-01-05T10:58:49.880Z,86.17
2018-01-05T11:01:17.339Z,82.56
2018-01-05T11:03:45.105Z,81.01
2018-01-05T11:06:12.909Z,82.77
2018-01-05T11:08:40.353Z,80.15
2018-01-05T11:11:08.417Z,81.01
2018-01-05T11:13:35.878Z,82.53
2018-01-05T11:16:03.337Z,83.40
2018-01-05T11:18:31.097Z,83.36
2018-01-05T11:20:58.553Z,78.40
2018-01-05T11:23:26.017Z,79.53
2018-01-05T11:25:54.088Z,80.61
2018-01-05T11:35:05.053Z,80.57
2018-01-05T11:37:32.511Z,78.22
2018-01-05T11:39:59.961Z,77.24
2018-01-05T11:42:27.916Z,76.37
2018-01-05T11:44:56.061Z,78.34
2018-01-05T11:47:23.513Z,79.58
2018-01-05T11:49:51.210Z,78.28
2018-01-05T11:52:18.653Z,78.82
2018-01-05T11:54:46.104Z,78.42
2018-01-05T11:57:13.902Z,73.11
2018-01-05T11:59:41.352Z,69.09
2018-01-05T12:02:08.868Z,71.79
2018-01-05T12:04:36.584Z,68.90
2018-01-05T12:07:04.096Z,70.50
2018-01-05T12:09:31.551Z,70.44
2018-01-05T12:11:59.281Z,68.03
2018-01-05T12:14:26.728Z,69.51
2018-01-05T12:16:54.186Z,68.54
2018-01-05T12:19:21.913Z,61.28
2018-01-05T12:21:49.371Z,63.59
2018-01-05T12:24:16.833Z,61.44
2018-01-05T12:26:44.649Z,56.32
2018-01-05T12:29:12.104Z,54.48
2018-01-05T12:31:39.552Z,59.15
2018-01-05T12:34:07.333Z,54.78
2018-01-05T12:36:34.805Z,54.99
2018-01-05T12:39:02.256Z,52.47
2018-01-05T12:41:30.026Z,53.63
2018-01-05T12:43:57.482Z,59.63
2018-01-05T12:46:27.773Z,54.28
2018-01-05T12:48:55.486Z,52.91
2018-01-05T12:51:22.940Z,50.11
2018-01-05T12:53:50.390Z,58.18
2018-01-05T12:56:18.166Z,58.44
2018-01-05T12:58:45.621Z,58.51
2018-01-05T13:01:13.075Z,61.28
2018-01-05T13:03:40.842Z,59.28
2018-01-05T13:06:08.290Z,56.24
2018-01-05T13:08:35.758Z,55.93
2018-01-05T13:11:03.537Z,58.56
2018-01-05T13:13:30.983Z,56.17
2018-01-05T13:15:58.505Z,58.61
2018-01-05T13:18:26.271Z,59.14
2018-01-05T13:20:53.725Z,59.81
2018-01-05T13:23:21.165Z,58.76
2018-01-05T13:25:48.902Z,59.31
2018-01-05T13:28:16.349Z,55.78
2018-01-05T13:30:43.812Z,58.94
2018-01-05T13:33:11.599Z,64.71
2018-01-05T13:35:39.052Z,68.50
2018-01-05T13:38:06.503Z,67.74
2018-01-05T13:40:34.597Z,66.33
2018-01-05T13:43:02.042Z,66.70
2018-01-05T13:45:29.486Z,64.85
2018-01-05T13:47:57.541Z,59.80
2018-01-05T13:50:24.991Z,58.43
2018-01-05T13:52:52.442Z,55.62
2018-01-05T13:55:20.293Z,57.44
2018-01-05T13:57:47.747Z,55.45
2018-01-05T14:00:15.200Z,57.69
2018-01-05T14:02:42.784Z,58.21
2018-01-05T14:05:10.245Z,61.40
2018-01-05T14:07:37.689Z,62.23
2018-01-05T14:10:05.602Z,61.42
2018-01-05T14:12:33.067Z,65.71
2018-01-05T14:15:00.527Z,70.62
2018-01-05T14:17:28.334Z,71.51
2018-01-05T14:19:56.144Z,74.55
2018-01-05T14:22:23.638Z,77.49
2018-01-05T14:24:51.636Z,80.25
2018-01-05T14:27:19.088Z,78.72
2018-01-05T14:29:46.534Z,77.25
2018-01-05T14:32:14.329Z,77.66
2018-01-05T14:34:41.802Z,78.62
2018-01-05T14:37:09.253Z,80.85
2018-01-05T14:39:38.211Z,82.22
2018-01-05T14:42:05.654Z,83.98
2018-01-05T14:44:33.105Z,85.03
2018-01-05T14:47:00.924Z,86.38
2018-01-05T14:49:30.007Z,87.17
2018-01-05T14:51:57.462Z,88.59
2018-01-05T14:54:25.156Z,89.34
2018-01-05T14:56:52.627Z,90.69
2018-01-05T14:59:20.407Z,91.47
2018-01-05T15:01:48.179Z,91.84
2018-01-05T15:04:15.641Z,91.62
2018-01-05T15:06:43.085Z,93.01
2018-01-05T15:09:11.033Z,96.66
2018-01-05T15:11:38.605Z,96.78
2018-01-05T15:14:06.081Z,96.05
2018-01-05T15:16:33.990Z,95.90
2018-01-05T15:19:01.977Z,96.02
2018-01-05T15:21:29.429Z,96.88
2018-01-05T15:23:57.122Z,96.98
2018-01-05T15:26:24.574Z,96.77
2018-01-05T15:28:52.028Z,97.83
2018-01-05T15:31:20.050Z,98.31
2018-01-05T15:33:47.636Z,98.91
2018-01-05T15:36:15.918Z,99.71
2018-01-05T15:38:43.776Z,100.00
2018-01-05T15:41:11.241Z,100.00
2018-01-05T15:43:38.694Z,100.00
2018-01-05T15:46:07.457Z,100.00
2018-01-05T15:48:35.982Z,100.00
2018-01-05T15:51:03.875Z,100.00
2018-01-05T15:53:31.873Z,100.00
2018-01-05T15:55:59.337Z,100.00
2018-01-05T15:58:26.796Z,100.00
2018-01-05T16:00:54.754Z,100.00
2018-01-05T16:03:22.337Z,100.00
2018-01-05T16:05:49.785Z,100.00
2018-01-05T16:08:17.861Z,100.00
2018-01-05T16:10:46.196Z,100.00
2018-01-05T16:13:13.664Z,100.00
2018-01-05T16:15:41.418Z,100.00
2018-01-05T16:18:09.242Z,100.00
2018-01-05T16:20:36.697Z,100.00
2018-01-05T16:23:04.574Z,100.00
2018-01-05T16:25:32.242Z,100.00
2018-01-05T16:28:00.909Z,100.00
2018-01-05T16:30:28.815Z,100.00
2018-01-05T16:32:56.261Z,100.00
2018-01-05T16:35:24.458Z,100.00
2018-01-05T16:37:52.868Z,100.00
2018-01-05T16:40:20.984Z,100.00
2018-01-05T16:42:48.445Z,100.00
2018-01-05T16:45:16.230Z,100.00
2018-01-05T16:47:43.701Z,100.00
2018-01-05T16:50:11.176Z,100.00
2018-01-05T16:52:40.161Z,100.00
2018-01-05T16:55:07.610Z,100.00
2018-01-05T16:57:35.070Z,100.00
2018-01-05T17:00:03.424Z,100.00
2018-01-05T17:02:30.934Z,100.00
2018-01-05T17:04:58.407Z,100.00
2018-01-05T17:07:26.453Z,100.00
2018-01-05T17:09:54.563Z,100.00
2018-01-05T17:12:22.311Z,100.00
2018-01-05T17:14:50.036Z,100.00
2018-01-05T17:17:17.502Z,100.00
2018-01-05T17:19:46.096Z,100.00
2018-01-05T17:22:14.257Z,100.00
2018-01-05T17:24:41.722Z,100.00
2018-01-05T17:27:09.191Z,100.00
2018-01-05T17:29:36.946Z,100.00
2018-01-05T17:32:04.411Z,100.00
2018-01-05T17:34:31.869Z,100.00
2018-01-05T17:36:59.557Z,100.00
2018-01-05T17:39:27.031Z,100.00
2018-01-05T17:41:54.491Z,100.00
2018-01-05T17:44:22.330Z,100.00
2018-01-05T17:46:49.801Z,100.00
2018-01-05T17:49:17.268Z,100.00
2018-01-05T17:51:45.011Z,100.00
2018-01-05T17:54:12.845Z,100.00
2018-01-05T17:56:40.291Z,100.00
2018-01-05T17:59:08.010Z,100.00
2018-01-05T18:01:35.482Z,100.00
2018-01-05T18:04:02.967Z,100.00
2018-01-05T18:06:31.003Z,100.00
2018-01-05T18:08:58.458Z,100.00
2018-01-05T18:11:25.920Z,100.00
2018-01-05T18:13:53.636Z,100.00
2018-01-05T18:16:21.091Z,100.00
2018-01-05T18:18:48.549Z,100.00
2018-01-05T18:21:16.276Z,100.00
2018-01-05T18:23:43.728Z,100.00
2018-01-05T18:26:11.182Z,100.00
2018-01-05T18:28:39.045Z,100.00
2018-01-05T18:31:06.506Z,100.00
2018-01-05T18:33:33.969Z,100.00
2018-01-05T18:36:01.706Z,100.00
2018-01-05T18:38:29.165Z,100.00
2018-01-05T18:40:56.894Z,100.00
2018-01-05T18:43:24.705Z,100.00
2018-01-05T18:45:52.254Z,100.00
2018-01-05T18:48:19.709Z,100.00
2018-01-05T18:50:47.417Z,100.00
2018-01-05T18:53:14.865Z,100.00
2018-01-05T18:55:43.114Z,100.00
2018-01-05T18:58:11.032Z,100.00
2018-01-05T19:00:38.500Z,100.00
2018-01-05T19:03:05.951Z,100.00
2018-01-05T19:05:33.763Z,100.00
2018-01-05T19:08:01.225Z,100.00
2018-01-05T19:10:28.681Z,100.00
2018-01-05T19:12:56.412Z,100.00
2018-01-05T19:15:24.011Z,100.00
2018-01-05T19:17:51.496Z,100.00
2018-01-05T19:20:19.325Z,100.00
2018-01-05T19:22:46.785Z,100.00
2018-01-05T19:25:14.263Z,100.00
2018-01-05T19:27:42.060Z,100.00
2018-01-05T19:30:09.529Z,100.00
2018-01-05T19:32:36.989Z,100.00
2018-01-05T19:35:04.706Z,100.00
2018-01-05T19:37:32.156Z,100.00
2018-01-05T19:39:59.610Z,100.00
2018-01-05T19:42:27.458Z,100.00
2018-01-05T19:44:54.915Z,100.00
2018-01-05T19:47:22.366Z,100.00
2018-01-05T19:49:50.156Z,100.00
2018-01-05T19:52:17.614Z,100.00
2018-01-05T19:54:45.077Z,100.00
2018-01-05T19:57:13.289Z,100.00
2018-01-05T19:59:40.760Z,100.00
2018-01-05T20:02:08.232Z,100.00
2018-01-05T20:04:36.143Z,100.00
2018-01-05T20:07:03.640Z,100.00
2018-01-05T20:09:31.074Z,100.00
2018-01-05T20:11:59.137Z,100.00
2018-01-05T20:14:26.614Z,100.00
2018-01-05T20:16:54.077Z,100.00
2018-01-05T20:19:22.157Z,100.00
2018-01-05T20:21:49.629Z,100.00
2018-01-05T20:24:17.106Z,100.00
2018-01-05T20:26:44.974Z,100.00
2018-01-05T20:29:12.482Z,100.00
2018-01-05T20:31:39.947Z,100.00
2018-01-05T20:34:07.810Z,100.00
2018-01-05T20:36:35.270Z,100.00
2018-01-05T20:39:02.732Z,100.00
2018-01-05T20:41:30.580Z,100.00
2018-01-05T20:43:58.111Z,100.00
2018-01-05T20:46:25.583Z,100.00
2018-01-05T20:48:54.104Z,100.00
2018-01-05T20:51:22.194Z,100.00
2018-01-05T20:53:49.664Z,100.00
2018-01-05T20:56:17.413Z,100.00
2018-01-05T20:58:45.581Z,100.00
2018-01-05T21:01:13.325Z,100.00
2018-01-05T21:03:42.229Z,100.00
2018-01-05T21:06:09.684Z,100.00
2018-01-05T21:08:37.154Z,100.00
2018-01-05T21:11:04.921Z,100.00
2018-01-05T21:13:32.892Z,100.00
2018-01-05T21:16:01.605Z,100.00
2018-01-05T21:18:31.022Z,100.00
2018-01-05T21:20:58.527Z,100.00
2018-01-05T21:23:26.225Z,100.00
2018-01-05T21:25:53.967Z,100.00
2018-01-05T21:28:22.064Z,100.00
2018-01-05T21:30:50.122Z,100.00
2018-01-05T21:33:17.908Z,100.00
2018-01-05T21:35:45.369Z,100.00
2018-01-05T21:38:12.830Z,100.00
2018-01-05T21:40:41.555Z,100.00
2018-01-05T21:43:09.150Z,100.00
2018-01-05T21:45:36.750Z,100.00
2018-01-05T21:48:04.469Z,100.00
2018-01-05T21:50:31.920Z,100.00
2018-01-05T21:52:59.476Z,100.00
2018-01-05T21:55:27.577Z,100.00
2018-01-05T21:57:55.805Z,100.00
2018-01-05T22:00:23.730Z,100.00
2018-01-05T22:02:52.261Z,100.00
2018-01-05T22:05:19.703Z,100.00
2018-01-05T22:07:47.152Z,100.00
2018-01-05T22:10:15.927Z,100.00
2018-01-05T22:12:43.381Z,100.00
2018-01-05T22:15:10.914Z,100.00
2018-01-05T22:17:38.637Z,100.00
2018-01-05T22:20:06.112Z,100.00
2018-01-05T22:22:34.082Z,100.00
2018-01-05T22:25:02.172Z,100.00
2018-01-05T22:27:29.753Z,100.00
2018-01-05T22:29:57.898Z,100.00
2018-01-05T22:32:25.812Z,100.00
2018-01-05T22:34:53.260Z,100.00
2018-01-05T22:37:20.721Z,100.00
2018-01-05T22:39:48.551Z,100.00
2018-01-05T22:42:16.005Z,100.00
2018-01-05T22:44:43.471Z,100.00
2018-01-05T22:47:11.224Z,100.00
2018-01-05T22:49:38.680Z,100.00
2018-01-05T22:52:06.164Z,100.00
2018-01-05T22:54:33.977Z,100.00
2018-01-05T22:57:01.474Z,100.00
2018-01-05T22:59:28.949Z,100.00
2018-01-05T23:01:57.249Z,100.00
2018-01-05T23:04:24.706Z,100.00
2018-01-05T23:06:52.161Z,100.00
2018-01-05T23:09:19.892Z,100.00
2018-01-05T23:11:47.341Z,100.00
2018-01-05T23:14:14.796Z,100.00
2018-01-05T23:16:42.597Z,100.00
2018-01-05T23:19:10.082Z,100.00
2018-01-05T23:21:37.535Z,100.00
2018-01-05T23:24:05.280Z,100.00
2018-01-05T23:26:33.059Z,100.00
2018-01-05T23:29:01.108Z,100.00
2018-01-05T23:31:29.510Z,100.00
2018-01-05T23:33:56.984Z,100.00
2018-01-05T23:36:24.612Z,100.00
2018-01-05T23:38:52.656Z,100.00
2018-01-05T23:41:21.133Z,100.00
2018-01-05T23:43:48.690Z,100.00
2018-01-05T23:46:16.799Z,100.00
2018-01-05T23:48:44.717Z,100.00
2018-01-05T23:51:12.653Z,100.00
2018-01-05T23:53:40.937Z,100.00
2018-01-05T23:56:08.794Z,100.00
2018-01-05T23:58:36.490Z,100.00
